Time;durP1;ratioP1;P1;durP2;ratioP2;P2;SDS_P1;SDS_P2;PMS_P1;PMS_P2;Temp;Humidity;BMP_temperature;BMP_pressure;BME280_temperature;BME280_humidity;BME280_pressure;Samples;Min_cycle;Max_cycle;Signal;HPM_P1;HPM_P2
2023/08/15 00:03:10;;;;;;;12.00;7.63;;;21.10;99.90;;;;;;9992684;29;20284;-81
2023/08/15 00:08:32;;;;;;;9.13;6.97;;;21.10;99.90;;;;;;9977288;29;20208;-81
2023/08/15 00:13:56;;;;;;;9.77;6.55;;;21.10;99.90;;;;;;9964442;29;20208;-81
2023/08/15 00:19:17;;;;;;;7.90;5.93;;;21.10;99.90;;;;;;9951399;29;20357;-81
2023/08/15 00:24:39;;;;;;;8.60;6.20;;;21.10;99.90;;;;;;9962815;29;20550;-80
2023/08/15 00:30:00;;;;;;;10.32;6.40;;;21.10;58.00;;;;;;9951131;29;20205;-80
2023/08/15 00:35:23;;;;;;;8.98;5.88;;;21.00;1.00;;;;;;9922495;29;20487;-81
2023/08/15 00:40:44;;;;;;;9.07;5.47;;;20.90;57.20;;;;;;9948082;29;20263;-80
2023/08/15 00:46:07;;;;;;;7.40;5.68;;;20.90;99.90;;;;;;9966370;29;20232;-80
2023/08/15 00:51:28;;;;;;;8.38;4.97;;;20.90;99.90;;;;;;9969198;29;20212;-81
2023/08/15 00:56:49;;;;;;;9.88;5.38;;;20.80;99.90;;;;;;9970268;29;20210;-80
2023/08/15 01:02:11;;;;;;;7.88;5.72;;;20.70;1.00;;;;;;9977886;29;20306;-80
2023/08/15 01:07:33;;;;;;;10.32;6.78;;;20.70;1.00;;;;;;9980427;29;20206;-80
2023/08/15 01:13:08;;;;;;;12.55;6.57;;;20.70;1.00;;;;;;9952964;29;20208;-80
2023/08/15 01:18:36;;;;;;;8.35;5.45;;;20.60;1.00;;;;;;9940524;29;20204;-81
2023/08/15 01:23:57;;;;;;;8.40;5.68;;;20.60;99.90;;;;;;9968438;29;20228;-80
2023/08/15 01:29:19;;;;;;;9.80;5.45;;;20.50;1.00;;;;;;9956120;29;20254;-80
2023/08/15 01:34:50;;;;;;;8.75;5.55;;;20.40;1.00;;;;;;9921090;29;20233;-81
2023/08/15 01:40:16;;;;;;;9.82;6.30;;;20.40;99.90;;;;;;9952158;29;20248;-80
2023/08/15 01:45:38;;;;;;;7.95;6.20;;;20.40;99.90;;;;;;9942510;29;20526;-80
2023/08/15 01:51:00;;;;;;;7.35;5.90;;;20.50;99.90;;;;;;9955631;29;20204;-80
2023/08/15 01:56:24;;;;;;;8.07;5.70;;;20.50;1.00;;;;;;9943052;29;20271;-80
2023/08/15 02:01:45;;;;;;;7.95;6.55;;;20.50;99.90;;;;;;9972524;29;20311;-80
2023/08/15 02:07:06;;;;;;;7.40;5.15;;;20.50;99.90;;;;;;10005399;29;20195;-80
2023/08/15 02:12:28;;;;;;;9.00;5.45;;;20.60;99.90;;;;;;9968676;29;20219;-80
2023/08/15 02:17:49;;;;;;;7.53;4.95;;;20.40;1.00;;;;;;9966674;29;20216;-81
2023/08/15 02:23:11;;;;;;;6.40;4.72;;;20.50;99.90;;;;;;9954254;29;20277;-81
2023/08/15 02:28:32;;;;;;;6.22;4.85;;;20.60;1.00;;;;;;9966005;29;20295;-81
2023/08/15 02:33:54;;;;;;;7.40;5.05;;;20.60;99.90;;;;;;9966654;29;20242;-81
2023/08/15 02:39:16;;;;;;;5.80;4.93;;;20.60;1.00;;;;;;9952872;29;20228;-80
2023/08/15 02:44:38;;;;;;;6.68;4.97;;;20.70;99.90;;;;;;9977750;29;20244;-81
2023/08/15 02:49:59;;;;;;;5.22;4.47;;;20.70;99.90;;;;;;9953435;29;20294;-80
2023/08/15 02:55:21;;;;;;;9.30;5.43;;;20.60;96.50;;;;;;9951912;29;20203;-81
2023/08/15 03:00:43;;;;;;;6.47;4.80;;;20.60;99.90;;;;;;9962841;29;20226;-81
2023/08/15 03:06:07;;;;;;;7.75;4.50;;;20.60;99.90;;;;;;10016530;29;20215;-81
2023/08/15 03:11:30;;;;;;;5.95;4.72;;;20.50;99.90;;;;;;9970107;29;20215;-81
2023/08/15 03:16:52;;;;;;;7.72;5.13;;;20.50;1.00;;;;;;9965397;29;20204;-80
2023/08/15 03:22:14;;;;;;;7.30;5.30;;;20.40;99.90;;;;;;9951741;29;20248;-80
2023/08/15 03:27:35;;;;;;;5.68;4.25;;;20.30;99.90;;;;;;9964287;29;20242;-81
2023/08/15 03:32:57;;;;;;;8.43;5.13;;;20.20;72.10;;;;;;9964467;29;20216;-84
2023/08/15 03:38:21;;;;;;;5.40;4.60;;;20.20;1.00;;;;;;9964457;29;20280;-81
2023/08/15 03:43:42;;;;;;;10.23;4.53;;;20.20;1.00;;;;;;9964214;29;20240;-81
2023/08/15 03:49:04;;;;;;;7.97;4.70;;;20.20;66.20;;;;;;9952097;29;20208;-80
2023/08/15 03:54:26;;;;;;;5.00;4.57;;;20.20;1.00;;;;;;9951103;29;20224;-81
2023/08/15 03:59:48;;;;;;;6.15;4.93;;;20.10;99.90;;;;;;9942211;29;20203;-81
2023/08/15 04:05:09;;;;;;;11.18;5.22;;;20.10;1.00;;;;;;10001679;29;20546;-80
2023/08/15 04:10:30;;;;;;;4.85;4.32;;;20.20;1.00;;;;;;9989979;29;20212;-81
2023/08/15 04:15:51;;;;;;;5.15;3.97;;;20.30;99.90;;;;;;9946199;29;20204;-81
2023/08/15 04:21:13;;;;;;;5.45;4.32;;;20.40;99.90;;;;;;9958380;29;20227;-80
2023/08/15 04:26:34;;;;;;;6.82;4.50;;;20.50;1.00;;;;;;9970154;29;20391;-81
2023/08/15 04:31:55;;;;;;;6.38;3.55;;;20.60;99.90;;;;;;9957989;29;20215;-81
2023/08/15 04:37:17;;;;;;;5.55;3.90;;;20.70;99.90;;;;;;9970870;29;20289;-81
2023/08/15 04:42:41;;;;;;;5.40;3.75;;;20.90;36.30;;;;;;9945791;29;20323;-81
2023/08/15 04:48:02;;;;;;;4.53;3.70;;;21.10;1.00;;;;;;9957708;29;20212;-80
2023/08/15 04:53:24;;;;;;;4.50;3.60;;;21.40;1.00;;;;;;9956659;29;20261;-81
2023/08/15 04:58:46;;;;;;;4.22;3.83;;;21.60;99.90;;;;;;9944836;29;20488;-81
2023/08/15 05:04:08;;;;;;;8.48;4.43;;;21.80;1.00;;;;;;9955524;29;20229;-82
2023/08/15 05:09:30;;;;;;;8.07;4.25;;;22.00;1.00;;;;;;9955800;29;20204;-81
2023/08/15 05:14:51;;;;;;;6.55;4.05;;;22.20;1.00;;;;;;9944308;29;20507;-81
2023/08/15 05:20:12;;;;;;;7.75;4.97;;;22.40;1.00;;;;;;9955973;29;20284;-82
2023/08/15 05:25:34;;;;;;;6.38;4.00;;;22.60;99.90;;;;;;9943059;29;20243;-82
2023/08/15 05:30:56;;;;;;;8.60;4.47;;;22.70;99.90;;;;;;9969062;29;20304;-80
2023/08/15 05:36:17;;;;;;;6.00;4.30;;;22.80;99.90;;;;;;9964632;29;20203;-81
2023/08/15 05:41:38;;;;;;;5.00;3.95;;;22.90;99.90;;;;;;9942757;29;20282;-80
2023/08/15 05:47:00;;;;;;;4.13;3.17;;;22.90;99.90;;;;;;9955890;29;20280;-81
2023/08/15 05:52:21;;;;;;;7.03;3.75;;;22.90;99.90;;;;;;9954122;29;20503;-81
2023/08/15 05:57:43;;;;;;;7.82;4.85;;;23.00;99.90;;;;;;9955566;29;20204;-81
2023/08/15 06:03:05;;;;;;;7.13;4.30;;;23.10;99.90;;;;;;9995636;29;20326;-81
2023/08/15 06:08:26;;;;;;;8.13;4.57;;;23.30;99.90;;;;;;9934438;29;20561;-82
2023/08/15 06:13:48;;;;;;;9.13;3.58;;;23.70;99.90;;;;;;9988755;29;20508;-81
2023/08/15 06:19:09;;;;;;;6.25;3.65;;;24.00;80.80;;;;;;9954528;29;20243;-80
2023/08/15 06:24:30;;;;;;;5.28;4.00;;;24.30;26.80;;;;;;9965965;29;20244;-81
2023/08/15 06:29:52;;;;;;;8.07;3.88;;;24.60;1.00;;;;;;9953184;29;20205;-82
2023/08/15 06:35:13;;;;;;;7.28;4.30;;;24.90;1.00;;;;;;9954167;29;20244;-81
2023/08/15 06:40:35;;;;;;;6.32;4.40;;;25.60;1.00;;;;;;9952791;29;20240;-81
2023/08/15 06:45:57;;;;;;;8.45;4.20;;;26.70;1.00;;;;;;9953468;29;20524;-82
2023/08/15 06:51:18;;;;;;;5.20;4.15;;;27.70;1.00;;;;;;9951540;29;20228;-83
2023/08/15 06:56:39;;;;;;;9.07;4.25;;;28.10;1.00;;;;;;9966419;29;20276;-82
2023/08/15 07:02:01;;;;;;;7.47;4.63;;;;;;;;;;9972902;29;20232;-83
2023/08/15 07:07:25;;;;;;;8.82;5.10;;;29.40;1.00;;;;;;9992174;29;20208;-83
2023/08/15 07:12:46;;;;;;;7.72;5.20;;;29.30;1.00;;;;;;9953051;29;20269;-83
2023/08/15 07:18:07;;;;;;;8.25;5.25;;;28.60;1.00;;;;;;9966315;29;20216;-83
2023/08/15 07:23:30;;;;;;;6.50;4.63;;;;;;;;;;9939024;29;20246;-82
2023/08/15 07:28:51;;;;;;;8.38;5.05;;;27.70;1.00;;;;;;9952857;29;20284;-82
2023/08/15 07:34:13;;;;;;;7.15;5.38;;;;;;;;;;9952326;29;20216;-81
2023/08/15 07:39:34;;;;;;;7.57;5.30;;;27.30;1.00;;;;;;9963016;29;20207;-82
2023/08/15 07:44:55;;;;;;;10.63;6.20;;;27.20;1.00;;;;;;9939458;29;20307;-81
2023/08/15 07:50:20;;;;;;;6.68;4.97;;;27.10;1.00;;;;;;9951926;29;20227;-82
2023/08/15 07:55:41;;;;;;;6.47;5.07;;;27.70;1.00;;;;;;9950902;29;20224;-81
2023/08/15 08:01:03;;;;;;;11.10;5.97;;;28.20;1.00;;;;;;9945724;29;20280;-81
2023/08/15 08:06:24;;;;;;;6.82;5.15;;;28.40;1.00;;;;;;9963360;29;20388;-82
2023/08/15 08:11:57;;;;;;;10.82;6.65;;;28.30;1.00;;;;;;9953208;29;20311;-82
2023/08/15 08:17:19;;;;;;;9.65;6.20;;;28.10;1.00;;;;;;9938686;29;20394;-82
2023/08/15 08:22:40;;;;;;;8.25;6.20;;;27.90;1.00;;;;;;9949725;29;20530;-81
2023/08/15 08:28:02;;;;;;;9.25;6.15;;;27.80;1.00;;;;;;9938607;29;20204;-82
2023/08/15 08:33:23;;;;;;;8.48;6.35;;;27.90;1.00;;;;;;9949979;29;20590;-82
2023/08/15 08:38:45;;;;;;;7.35;6.00;;;29.00;1.00;;;;;;9964188;29;20212;-82
2023/08/15 08:44:06;;;;;;;8.55;6.38;;;30.40;1.00;;;;;;9938175;29;20492;-84
2023/08/15 08:49:29;;;;;;;9.70;5.63;;;31.40;1.00;;;;;;9949458;29;20216;-82
2023/08/15 08:54:50;;;;;;;6.15;5.18;;;32.10;1.00;;;;;;9967110;29;20208;-82
2023/08/15 09:00:19;;;;;;;8.20;5.38;;;33.00;1.00;;;;;;9976587;29;20526;-82
2023/08/15 09:05:41;;;;;;;11.45;5.78;;;33.60;1.00;;;;;;9983465;29;20264;-82
2023/08/15 09:11:02;;;;;;;8.73;5.40;;;34.00;1.00;;;;;;9982648;29;20503;-82
2023/08/15 09:16:24;;;;;;;7.53;4.85;;;34.40;1.00;;;;;;9982260;29;20408;-81
2023/08/15 09:21:45;;;;;;;7.93;5.38;;;34.50;99.90;;;;;;9943193;29;20400;-82
2023/08/15 09:27:07;;;;;;;6.88;4.28;;;;;;;;;;9956681;29;20216;-82
2023/08/15 09:32:30;;;;;;;8.75;4.13;;;35.20;1.00;;;;;;9967823;29;20219;-82
2023/08/15 09:37:52;;;;;;;39.22;5.50;;;35.70;99.90;;;;;;9968953;29;20204;-81
2023/08/15 09:43:16;;;;;;;7.93;3.88;;;36.00;99.90;;;;;;9968495;29;20255;-82
2023/08/15 09:48:37;;;;;;;8.77;3.92;;;36.20;99.90;;;;;;9967304;29;20495;-82
2023/08/15 09:54:01;;;;;;;9.80;3.85;;;36.30;99.90;;;;;;9968312;29;20276;-83
2023/08/15 09:59:22;;;;;;;8.13;3.75;;;36.10;99.90;;;;;;9954662;29;20250;-83
2023/08/15 10:04:45;;;;;;;10.98;3.67;;;36.30;99.90;;;;;;9943268;29;20229;-82
2023/08/15 10:10:08;;;;;;;5.82;3.38;;;36.30;99.90;;;;;;9938699;29;20232;-82
2023/08/15 10:15:32;;;;;;;7.32;3.72;;;36.40;99.90;;;;;;9966673;29;20257;-83
2023/08/15 10:20:56;;;;;;;6.30;3.83;;;36.50;99.90;;;;;;9954657;29;20213;-82
2023/08/15 10:26:18;;;;;;;7.78;3.25;;;37.00;99.90;;;;;;9954305;29;20240;-85
2023/08/15 10:31:40;;;;;;;4.90;2.78;;;36.90;99.90;;;;;;9965636;29;20452;-82
2023/08/15 10:37:33;;;;;;;4.43;2.88;;;36.80;99.90;;;;;;9966988;29;20325;-82
2023/08/15 10:43:11;;;;;;;5.07;2.90;;;36.80;99.90;;;;;;9953305;29;20263;-82
2023/08/15 10:48:49;;;;;;;17.60;3.17;;;36.90;99.90;;;;;;9916448;29;20271;-82
2023/08/15 10:54:14;;;;;;;4.53;2.88;;;37.10;99.90;;;;;;9929646;29;20198;-82
2023/08/15 10:59:36;;;;;;;6.30;2.70;;;36.70;99.90;;;;;;9929548;29;20215;-81
2023/08/15 11:04:58;;;;;;;7.88;2.75;;;37.00;99.90;;;;;;10003489;29;20276;-82
2023/08/15 11:10:19;;;;;;;4.03;2.55;;;36.80;99.90;;;;;;9992699;29;20379;-82
2023/08/15 11:15:40;;;;;;;6.90;3.00;;;37.40;99.90;;;;;;9963899;29;20213;-82
2023/08/15 11:21:02;;;;;;;4.60;3.05;;;37.30;99.90;;;;;;9952455;29;20200;-82
2023/08/15 11:26:25;;;;;;;6.47;3.03;;;37.20;99.90;;;;;;9964741;29;20239;-82
2023/08/15 11:31:48;;;;;;;6.57;3.15;;;37.30;99.90;;;;;;9951176;29;20211;-82
2023/08/15 11:37:09;;;;;;;6.63;3.70;;;37.30;99.90;;;;;;9952097;29;20406;-82
2023/08/15 11:42:32;;;;;;;4.50;2.80;;;37.60;99.90;;;;;;9964349;29;20236;-82
2023/08/15 11:47:59;;;;;;;6.10;3.60;;;37.70;99.90;;;;;;9951220;29;20227;-82
2023/08/15 11:53:20;;;;;;;5.93;2.95;;;37.40;99.90;;;;;;9964286;29;20530;-82
2023/08/15 11:58:42;;;;;;;7.47;3.45;;;37.30;99.90;;;;;;9964444;29;20219;-83
2023/08/15 12:04:04;;;;;;;7.40;3.55;;;37.40;99.90;;;;;;9986814;29;20227;-81
2023/08/15 12:09:28;;;;;;;5.95;3.25;;;37.40;99.90;;;;;;9997639;29;20208;-81
2023/08/15 12:14:50;;;;;;;6.80;3.72;;;37.30;99.90;;;;;;9950316;29;20216;-81
2023/08/15 12:20:12;;;;;;;9.45;4.00;;;37.30;99.90;;;;;;9963904;29;20207;-81
2023/08/15 12:25:33;;;;;;;11.65;3.60;;;37.20;99.90;;;;;;9938050;29;20244;-81
2023/08/15 12:30:54;;;;;;;4.47;3.70;;;37.10;99.90;;;;;;9969791;29;20212;-81
2023/08/15 12:36:16;;;;;;;6.05;3.67;;;37.00;99.90;;;;;;9968930;29;20253;-82
2023/08/15 12:41:37;;;;;;;6.13;3.40;;;36.90;99.90;;;;;;9958144;29;20475;-82
2023/08/15 12:46:58;;;;;;;6.57;3.30;;;36.70;99.90;;;;;;9970815;29;20231;-83
2023/08/15 12:52:20;;;;;;;7.30;4.15;;;36.80;99.90;;;;;;9969247;29;20500;-81
2023/08/15 12:57:41;;;;;;;4.47;3.45;;;36.70;99.90;;;;;;9957940;29;20209;-81
2023/08/15 13:03:04;;;;;;;9.52;4.00;;;36.80;99.90;;;;;;9985012;29;20311;-81
2023/08/15 13:08:27;;;;;;;16.58;3.95;;;36.80;99.90;;;;;;9988359;29;20215;-81
2023/08/15 13:13:48;;;;;;;7.65;3.72;;;36.50;99.90;;;;;;9956355;29;20220;-81
2023/08/15 13:19:10;;;;;;;20.52;4.30;;;36.20;99.90;;;;;;9956870;29;20234;-81
2023/08/15 13:24:31;;;;;;;5.40;3.30;;;36.00;99.90;;;;;;9954113;29;20245;-81
2023/08/15 13:29:52;;;;;;;8.32;3.78;;;35.80;99.90;;;;;;9956669;29;20204;-81
2023/08/15 13:35:14;;;;;;;9.25;4.30;;;35.90;99.90;;;;;;9932526;29;20496;-81
2023/08/15 13:40:35;;;;;;;11.35;4.18;;;35.80;99.90;;;;;;9951945;29;20285;-81
2023/08/15 13:46:06;;;;;;;6.75;3.67;;;35.70;99.90;;;;;;9956106;29;20512;-81
2023/08/15 13:51:30;;;;;;;6.28;3.58;;;35.50;99.90;;;;;;9981120;29;20480;-81
2023/08/15 13:56:51;;;;;;;4.78;3.97;;;35.30;99.90;;;;;;9967169;29;20223;-82
2023/08/15 14:02:14;;;;;;;4.80;3.90;;;35.00;99.90;;;;;;9989482;29;20204;-82
2023/08/15 14:07:35;;;;;;;8.65;4.15;;;34.90;99.90;;;;;;10005082;29;20203;-82
2023/08/15 14:12:57;;;;;;;15.52;4.45;;;35.00;99.90;;;;;;9953249;29;20235;-83
2023/08/15 14:18:18;;;;;;;8.15;4.18;;;34.90;99.90;;;;;;9954576;29;20212;-82
2023/08/15 14:23:44;;;;;;;7.05;4.47;;;34.80;99.90;;;;;;9965717;29;20236;-81
2023/08/15 14:29:05;;;;;;;6.15;4.13;;;34.50;99.90;;;;;;9953616;29;20221;-82
2023/08/15 14:34:27;;;;;;;7.60;4.00;;;34.20;99.90;;;;;;9967015;29;20224;-82
2023/08/15 14:39:48;;;;;;;4.15;3.75;;;34.00;99.90;;;;;;9966054;29;20216;-81
2023/08/15 14:45:10;;;;;;;6.32;3.95;;;33.80;99.90;;;;;;9954083;29;20236;-81
2023/08/15 14:50:31;;;;;;;4.35;3.85;;;33.90;99.90;;;;;;9965991;29;20445;-81
2023/08/15 14:55:52;;;;;;;6.88;4.35;;;33.80;99.90;;;;;;9953071;29;20212;-83
2023/08/15 15:01:14;;;;;;;4.90;4.15;;;33.70;99.90;;;;;;9980256;29;20510;-82
2023/08/15 15:06:36;;;;;;;6.68;4.72;;;33.50;99.90;;;;;;10003431;29;20239;-80
2023/08/15 15:12:01;;;;;;;7.30;4.97;;;33.00;99.90;;;;;;9959344;29;20201;-81
2023/08/15 15:17:22;;;;;;;6.20;4.55;;;33.00;99.90;;;;;;9965938;29;20200;-83
2023/08/15 15:22:46;;;;;;;7.88;4.32;;;32.80;99.90;;;;;;9952865;29;20260;-82
2023/08/15 15:28:07;;;;;;;5.80;4.20;;;32.80;99.90;;;;;;9938972;29;20215;-81
2023/08/15 15:33:29;;;;;;;7.22;4.57;;;32.70;99.90;;;;;;9953305;29;20216;-80
2023/08/15 15:38:52;;;;;;;13.48;4.85;;;32.70;99.90;;;;;;9951339;29;20408;-80
2023/08/15 15:44:14;;;;;;;8.48;4.38;;;32.60;99.90;;;;;;9939391;29;20289;-80
2023/08/15 15:49:35;;;;;;;6.05;4.00;;;32.40;99.90;;;;;;9963815;29;20257;-81
2023/08/15 15:54:57;;;;;;;5.72;4.35;;;32.30;99.90;;;;;;9933729;29;20510;-81
2023/08/15 16:00:20;;;;;;;6.57;4.30;;;32.20;99.90;;;;;;9953866;29;20397;-80
2023/08/15 16:05:42;;;;;;;6.85;5.00;;;32.10;99.90;;;;;;9986050;29;20539;-81
2023/08/15 16:11:03;;;;;;;5.25;4.50;;;32.00;99.90;;;;;;9959610;29;20204;-81
2023/08/15 16:16:24;;;;;;;9.32;5.20;;;31.90;99.90;;;;;;9958352;29;20227;-81
2023/08/15 16:21:46;;;;;;;7.75;5.45;;;31.80;99.90;;;;;;9959502;29;20265;-80
2023/08/15 16:27:07;;;;;;;7.07;6.05;;;31.70;99.90;;;;;;9924205;29;20236;-81
2023/08/15 16:32:29;;;;;;;9.55;5.63;;;31.60;99.90;;;;;;9951066;29;20211;-82
2023/08/15 16:37:50;;;;;;;7.95;4.82;;;31.50;99.90;;;;;;9971231;29;20291;-81
2023/08/15 16:43:14;;;;;;;5.43;4.82;;;31.40;99.90;;;;;;9967832;29;20232;-82
2023/08/15 16:48:37;;;;;;;7.03;4.50;;;31.30;99.90;;;;;;9966920;29;20293;-80
2023/08/15 16:53:58;;;;;;;5.90;4.40;;;31.20;99.90;;;;;;9971022;29;20208;-82
2023/08/15 16:59:19;;;;;;;9.88;4.97;;;31.10;99.90;;;;;;9983290;29;20241;-80
2023/08/15 17:04:41;;;;;;;5.32;4.38;;;31.10;99.90;;;;;;9966500;29;20519;-81
2023/08/15 17:10:05;;;;;;;6.30;4.57;;;30.90;99.90;;;;;;9954690;29;20204;-84
2023/08/15 17:15:26;;;;;;;7.47;4.65;;;30.80;99.90;;;;;;9957384;29;20208;-81
2023/08/15 17:20:47;;;;;;;5.05;4.43;;;30.70;99.90;;;;;;9944225;29;20208;-81
2023/08/15 17:26:09;;;;;;;10.90;4.53;;;30.50;99.90;;;;;;9974297;29;20236;-81
2023/08/15 17:31:30;;;;;;;4.97;4.03;;;30.40;99.90;;;;;;9967044;29;20509;-82
2023/08/15 17:36:51;;;;;;;4.78;4.13;;;30.30;99.90;;;;;;9983844;29;20234;-81
2023/08/15 17:42:14;;;;;;;5.15;4.65;;;30.30;99.90;;;;;;9966533;29;20263;-82
2023/08/15 17:47:37;;;;;;;6.88;5.85;;;30.20;99.90;;;;;;9962431;29;20228;-82
2023/08/15 17:52:58;;;;;;;9.43;5.93;;;30.00;99.90;;;;;;9976453;29;20211;-80
2023/08/15 17:58:20;;;;;;;9.45;6.47;;;30.00;99.90;;;;;;9966098;29;20209;-81
2023/08/15 18:03:42;;;;;;;6.90;6.20;;;;;;;;;;9995859;29;20243;-81
2023/08/15 18:09:07;;;;;;;7.38;6.20;;;29.50;99.90;;;;;;9981193;29;20223;-81
2023/08/15 18:14:29;;;;;;;7.90;6.45;;;29.50;1.00;;;;;;9967979;29;20499;-80
2023/08/15 18:19:50;;;;;;;6.85;6.15;;;29.30;1.00;;;;;;9954095;29;20460;-81
2023/08/15 18:25:11;;;;;;;7.38;6.57;;;29.00;1.00;;;;;;9966843;29;20243;-81
2023/08/15 18:30:33;;;;;;;8.93;7.43;;;28.90;1.00;;;;;;9966850;29;20205;-81
2023/08/15 18:35:54;;;;;;;11.18;7.75;;;28.90;1.00;;;;;;9941117;29;20219;-82
2023/08/15 18:41:15;;;;;;;8.50;7.60;;;28.80;1.00;;;;;;9953833;29;20240;-80
2023/08/15 18:46:39;;;;;;;25.65;8.48;;;28.60;1.00;;;;;;9965624;29;20549;-81
2023/08/15 18:52:00;;;;;;;11.30;7.88;;;28.40;1.00;;;;;;9954052;29;20245;-80
2023/08/15 18:57:21;;;;;;;9.52;6.75;;;28.30;1.00;;;;;;9940080;29;20403;-81
2023/08/15 19:02:43;;;;;;;8.32;7.40;;;28.10;1.00;;;;;;9992081;29;20203;-81
2023/08/15 19:08:04;;;;;;;11.05;6.93;;;28.00;1.00;;;;;;9976746;29;20220;-80
2023/08/15 19:13:25;;;;;;;11.43;7.32;;;27.90;1.00;;;;;;9940577;29;20231;-83
2023/08/15 19:18:46;;;;;;;7.60;6.70;;;27.70;1.00;;;;;;9937256;29;20563;-81
2023/08/15 19:24:08;;;;;;;7.55;6.80;;;27.60;97.50;;;;;;9928120;29;20239;-82
2023/08/15 19:29:29;;;;;;;8.65;7.13;;;27.50;99.90;;;;;;9958817;29;20576;-84
2023/08/15 19:34:51;;;;;;;10.20;7.65;;;27.50;1.00;;;;;;9952166;29;20284;-83
2023/08/15 19:40:12;;;;;;;10.43;9.27;;;27.40;1.00;;;;;;9964532;29;20259;-85
2023/08/15 19:45:34;;;;;;;13.75;9.98;;;27.30;1.00;;;;;;9950899;29;20238;-82
2023/08/15 19:50:55;;;;;;;11.10;9.35;;;27.20;1.00;;;;;;9949981;29;20216;-82
2023/08/15 19:56:17;;;;;;;12.07;10.75;;;27.00;1.00;;;;;;9964848;29;20424;-82
2023/08/15 20:01:38;;;;;;;11.40;10.25;;;26.90;1.00;;;;;;9981786;29;20203;-86
2023/08/15 20:06:59;;;;;;;12.70;9.80;;;26.80;1.00;;;;;;9981943;29;20237;-81
2023/08/15 20:12:21;;;;;;;18.00;11.75;;;26.70;1.00;;;;;;9963708;29;20211;-81
2023/08/15 20:17:43;;;;;;;16.52;11.85;;;;;;;;;;9963926;29;20215;-81
2023/08/15 20:23:04;;;;;;;18.95;14.20;;;26.60;99.90;;;;;;9951424;29;20382;-82
2023/08/15 20:28:26;;;;;;;16.92;12.90;;;26.30;1.00;;;;;;9976546;29;20559;-82
2023/08/15 20:33:47;;;;;;;16.98;11.82;;;26.20;1.00;;;;;;9916677;29;20220;-82
2023/08/15 20:39:09;;;;;;;14.55;11.13;;;26.20;1.00;;;;;;9958519;29;20211;-82
2023/08/15 20:44:31;;;;;;;14.95;11.32;;;26.10;1.00;;;;;;9964355;29;20586;-82
2023/08/15 20:49:53;;;;;;;16.80;11.45;;;26.00;1.00;;;;;;9966337;29;20526;-81
2023/08/15 20:55:14;;;;;;;22.73;12.52;;;25.90;1.00;;;;;;9970112;29;20299;-82
2023/08/15 21:00:36;;;;;;;17.40;11.68;;;25.90;1.00;;;;;;9933351;29;20242;-82
2023/08/15 21:05:57;;;;;;;15.82;11.13;;;25.70;1.00;;;;;;9969419;29;20240;-81
2023/08/15 21:11:19;;;;;;;14.90;10.10;;;25.80;26.10;;;;;;9970266;29;20204;-82
2023/08/15 21:16:41;;;;;;;13.90;9.68;;;;;;;;;;9969232;29;20402;-82
2023/08/15 21:22:02;;;;;;;16.48;9.80;;;25.50;1.00;;;;;;9957106;29;20205;-81
2023/08/15 21:27:23;;;;;;;13.20;8.48;;;25.50;1.00;;;;;;9969079;29;20315;-82
2023/08/15 21:32:44;;;;;;;14.02;8.43;;;25.30;1.00;;;;;;9969201;29;20262;-81
2023/08/15 21:38:06;;;;;;;12.38;8.55;;;25.20;1.00;;;;;;9967332;29;20224;-82
2023/08/15 21:43:27;;;;;;;14.63;9.70;;;25.10;99.90;;;;;;9943794;29;20252;-82
2023/08/15 21:48:48;;;;;;;13.40;9.35;;;24.90;99.90;;;;;;9980976;29;20223;-82
2023/08/15 21:54:10;;;;;;;13.18;9.05;;;24.90;99.90;;;;;;9969108;29;20204;-81
2023/08/15 21:59:32;;;;;;;13.85;8.88;;;24.80;99.90;;;;;;9969192;29;20279;-82
2023/08/15 22:04:53;;;;;;;12.77;8.90;;;24.70;1.00;;;;;;9998646;29;20278;-81
2023/08/15 22:10:15;;;;;;;10.75;7.55;;;24.60;1.00;;;;;;9955437;29;20259;-81
2023/08/15 22:16:02;;;;;;;13.02;8.55;;;24.60;1.00;;;;;;9955370;29;20215;-81
2023/08/15 22:21:23;;;;;;;10.38;8.25;;;24.50;1.00;;;;;;9968128;29;20208;-81
2023/08/15 22:26:44;;;;;;;10.48;7.85;;;24.40;1.00;;;;;;9941450;29;20243;-82
2023/08/15 22:32:06;;;;;;;11.52;7.47;;;24.20;1.00;;;;;;9967498;29;20533;-81
2023/08/15 22:37:28;;;;;;;8.45;6.75;;;24.20;9.50;;;;;;9953484;29;20238;-81
2023/08/15 22:42:49;;;;;;;11.25;7.35;;;24.10;1.00;;;;;;9954136;29;20531;-81
2023/08/15 22:48:11;;;;;;;9.98;7.65;;;23.90;99.90;;;;;;9952848;29;20236;-81
2023/08/15 22:53:32;;;;;;;12.68;7.28;;;23.90;26.50;;;;;;9954084;29;20201;-81
2023/08/15 22:58:54;;;;;;;10.85;7.05;;;23.90;99.90;;;;;;9964710;29;20218;-81
2023/08/15 23:04:15;;;;;;;6.60;5.88;;;23.90;46.10;;;;;;10002069;29;20230;-81
2023/08/15 23:09:36;;;;;;;10.25;6.82;;;23.90;96.00;;;;;;9966036;29;20228;-81
2023/08/15 23:14:58;;;;;;;7.88;6.05;;;23.80;99.90;;;;;;9977100;29;20216;-81
2023/08/15 23:20:19;;;;;;;7.72;6.85;;;23.80;99.90;;;;;;9952976;29;20261;-81
2023/08/15 23:25:40;;;;;;;10.10;7.20;;;23.70;99.90;;;;;;9964722;29;20244;-81
2023/08/15 23:31:02;;;;;;;17.40;10.30;;;23.60;99.90;;;;;;9952457;29;20208;-81
2023/08/15 23:36:24;;;;;;;16.08;9.70;;;23.70;1.00;;;;;;9951702;29;20240;-81
2023/08/15 23:41:45;;;;;;;14.50;9.45;;;23.60;1.00;;;;;;9952753;29;20308;-81
2023/08/15 23:47:07;;;;;;;13.38;7.50;;;23.50;1.00;;;;;;9949138;29;20232;-81
2023/08/15 23:52:29;;;;;;;8.38;6.47;;;23.40;1.00;;;;;;9952363;29;20219;-81
2023/08/15 23:57:51;;;;;;;6.22;5.57;;;23.40;1.00;;;;;;9951462;29;20216;-81
